Terminal Aerodrome Forecast
Issued by NWS Quad Cities IA IL

Home | Current Version | Previous Version | Text Only | Print | Product List | Glossary On
Versions: 1 2 3 4 5 6 7 8 9 10 11 12 13 14 15 16 17 18 19
000
FTUS43 KDVN 291720
TAFDBQ
TAF
KDBQ 291720Z 2918/3018 01014G19KT P6SM FEW030
     FM300000 02008KT P6SM SCT030
     FM301000 03008KT 6SM BR SCT007 OVC016
     FM301300 03009KT 6SM BR VCSH SCT007 OVC010=

USA.gov is the U.S. government's official web portal to all federal, state and local government web resources and services.